sensor_id;sensor_type;location;lat;lon;timestamp;P1;durP1;ratioP1;P2;durP2;ratioP2
17193;SDS011;8713;48.388;10.928;2022-09-03T05:56:30;1.85;;;1.13;;
17193;SDS011;8713;48.388;10.928;2022-09-03T05:57:41;2.50;;;1.40;;
17193;SDS011;8713;48.388;10.928;2022-09-03T05:58:55;2.47;;;1.50;;
17193;SDS011;8713;48.388;10.928;2022-09-03T06:00:08;1.95;;;1.40;;
17193;SDS011;8713;48.388;10.928;2022-09-03T06:01:21;2.45;;;1.60;;
17193;SDS011;8713;48.388;10.928;2022-09-03T06:02:39;2.80;;;1.58;;
17193;SDS011;8713;48.388;10.928;2022-09-03T06:03:54;3.95;;;1.70;;
17193;SDS011;8713;48.388;10.928;2022-09-03T06:05:07;5.40;;;1.70;;
17193;SDS011;8713;48.388;10.928;2022-09-03T06:06:16;3.15;;;1.83;;
17193;SDS011;8713;48.388;10.928;2022-09-03T06:07:26;8.38;;;1.60;;
17193;SDS011;8713;48.388;10.928;2022-09-03T06:08:36;5.47;;;1.80;;
17193;SDS011;8713;48.388;10.928;2022-09-03T06:09:49;6.30;;;1.67;;
17193;SDS011;8713;48.388;10.928;2022-09-03T06:10:59;4.97;;;1.63;;
17193;SDS011;8713;48.388;10.928;2022-09-03T06:12:09;4.00;;;1.60;;
17193;SDS011;8713;48.388;10.928;2022-09-03T06:13:18;4.65;;;1.60;;
17193;SDS011;8713;48.388;10.928;2022-09-03T06:14:27;5.93;;;1.65;;
17193;SDS011;8713;48.388;10.928;2022-09-03T06:15:37;3.15;;;1.48;;
17193;SDS011;8713;48.388;10.928;2022-09-03T06:16:47;3.80;;;1.35;;
17193;SDS011;8713;48.388;10.928;2022-09-03T06:17:57;2.47;;;1.25;;
17193;SDS011;8713;48.388;10.928;2022-09-03T06:19:07;2.65;;;1.40;;
17193;SDS011;8713;48.388;10.928;2022-09-03T06:20:18;5.38;;;1.80;;
17193;SDS011;8713;48.388;10.928;2022-09-03T06:21:27;2.35;;;1.60;;
17193;SDS011;8713;48.388;10.928;2022-09-03T06:22:37;3.22;;;1.70;;
17193;SDS011;8713;48.388;10.928;2022-09-03T06:23:50;4.85;;;1.67;;
17193;SDS011;8713;48.388;10.928;2022-09-03T06:25:00;2.42;;;1.40;;
17193;SDS011;8713;48.388;10.928;2022-09-03T06:26:11;2.92;;;1.77;;
17193;SDS011;8713;48.388;10.928;2022-09-03T06:27:21;2.33;;;1.48;;
17193;SDS011;8713;48.388;10.928;2022-09-03T06:28:32;2.70;;;1.38;;
17193;SDS011;8713;48.388;10.928;2022-09-03T06:29:43;2.45;;;1.40;;
17193;SDS011;8713;48.388;10.928;2022-09-03T06:30:56;1.80;;;1.38;;
17193;SDS011;8713;48.388;10.928;2022-09-03T06:32:06;2.78;;;1.63;;
17193;SDS011;8713;48.388;10.928;2022-09-03T06:33:15;4.53;;;1.67;;
17193;SDS011;8713;48.388;10.928;2022-09-03T06:34:26;2.95;;;2.00;;
17193;SDS011;8713;48.388;10.928;2022-09-03T06:35:36;4.38;;;1.60;;
17193;SDS011;8713;48.388;10.928;2022-09-03T06:36:45;2.65;;;1.60;;
17193;SDS011;8713;48.388;10.928;2022-09-03T06:37:55;4.72;;;1.90;;
17193;SDS011;8713;48.388;10.928;2022-09-03T06:39:05;4.60;;;1.98;;
17193;SDS011;8713;48.388;10.928;2022-09-03T06:40:14;2.60;;;1.83;;
17193;SDS011;8713;48.388;10.928;2022-09-03T06:41:30;3.80;;;1.90;;
17193;SDS011;8713;48.388;10.928;2022-09-03T06:42:41;4.32;;;1.90;;
17193;SDS011;8713;48.388;10.928;2022-09-03T06:43:56;3.83;;;1.60;;
17193;SDS011;8713;48.388;10.928;2022-09-03T06:45:11;1.98;;;1.50;;
17193;SDS011;8713;48.388;10.928;2022-09-03T06:46:21;2.55;;;1.80;;
17193;SDS011;8713;48.388;10.928;2022-09-03T06:47:32;3.95;;;1.60;;
17193;SDS011;8713;48.388;10.928;2022-09-03T06:48:42;1.77;;;1.60;;
17193;SDS011;8713;48.388;10.928;2022-09-03T06:49:51;3.10;;;1.52;;
17193;SDS011;8713;48.388;10.928;2022-09-03T06:51:04;2.78;;;1.63;;
17193;SDS011;8713;48.388;10.928;2022-09-03T06:52:17;2.53;;;1.65;;
17193;SDS011;8713;48.388;10.928;2022-09-03T06:53:27;4.35;;;2.05;;
17193;SDS011;8713;48.388;10.928;2022-09-03T06:54:39;2.95;;;1.85;;
17193;SDS011;8713;48.388;10.928;2022-09-03T06:55:59;6.25;;;2.15;;
17193;SDS011;8713;48.388;10.928;2022-09-03T06:57:11;5.28;;;2.17;;
17193;SDS011;8713;48.388;10.928;2022-09-03T06:58:20;5.57;;;2.28;;
17193;SDS011;8713;48.388;10.928;2022-09-03T06:59:31;5.25;;;2.03;;
17193;SDS011;8713;48.388;10.928;2022-09-03T07:00:40;5.07;;;2.13;;
17193;SDS011;8713;48.388;10.928;2022-09-03T07:01:50;4.15;;;2.00;;
17193;SDS011;8713;48.388;10.928;2022-09-03T07:03:00;3.47;;;1.92;;
17193;SDS011;8713;48.388;10.928;2022-09-03T07:04:11;3.20;;;1.95;;
17193;SDS011;8713;48.388;10.928;2022-09-03T07:05:23;3.55;;;1.90;;
17193;SDS011;8713;48.388;10.928;2022-09-03T07:06:37;4.03;;;1.75;;
17193;SDS011;8713;48.388;10.928;2022-09-03T07:07:48;3.40;;;1.42;;
17193;SDS011;8713;48.388;10.928;2022-09-03T07:08:58;3.38;;;1.90;;
17193;SDS011;8713;48.388;10.928;2022-09-03T07:10:07;2.30;;;1.70;;
17193;SDS011;8713;48.388;10.928;2022-09-03T07:11:19;3.53;;;1.63;;
17193;SDS011;8713;48.388;10.928;2022-09-03T07:12:34;3.03;;;1.70;;
17193;SDS011;8713;48.388;10.928;2022-09-03T07:13:45;3.25;;;1.80;;
17193;SDS011;8713;48.388;10.928;2022-09-03T07:14:57;2.60;;;1.67;;
17193;SDS011;8713;48.388;10.928;2022-09-03T07:16:07;2.53;;;1.70;;
17193;SDS011;8713;48.388;10.928;2022-09-03T07:17:22;3.50;;;1.90;;
17193;SDS011;8713;48.388;10.928;2022-09-03T07:18:32;3.08;;;1.83;;
17193;SDS011;8713;48.388;10.928;2022-09-03T07:19:42;4.75;;;2.17;;
17193;SDS011;8713;48.388;10.928;2022-09-03T07:20:56;3.00;;;1.90;;
17193;SDS011;8713;48.388;10.928;2022-09-03T07:22:09;2.83;;;1.80;;
17193;SDS011;8713;48.388;10.928;2022-09-03T07:23:19;3.25;;;1.85;;
17193;SDS011;8713;48.388;10.928;2022-09-03T07:24:29;3.28;;;2.13;;
17193;SDS011;8713;48.388;10.928;2022-09-03T07:25:38;3.05;;;1.90;;
17193;SDS011;8713;48.388;10.928;2022-09-03T07:26:48;3.95;;;2.00;;
17193;SDS011;8713;48.388;10.928;2022-09-03T07:27:57;1.95;;;1.77;;
17193;SDS011;8713;48.388;10.928;2022-09-03T07:29:07;3.00;;;1.92;;
17193;SDS011;8713;48.388;10.928;2022-09-03T07:30:17;3.88;;;1.80;;
17193;SDS011;8713;48.388;10.928;2022-09-03T07:31:31;2.38;;;1.88;;
17193;SDS011;8713;48.388;10.928;2022-09-03T07:32:43;3.30;;;2.00;;
17193;SDS011;8713;48.388;10.928;2022-09-03T07:33:58;3.63;;;1.80;;
17193;SDS011;8713;48.388;10.928;2022-09-03T07:35:09;2.17;;;1.75;;
17193;SDS011;8713;48.388;10.928;2022-09-03T07:36:18;3.50;;;1.95;;
17193;SDS011;8713;48.388;10.928;2022-09-03T07:37:28;3.78;;;2.00;;
17193;SDS011;8713;48.388;10.928;2022-09-03T07:38:37;4.80;;;1.58;;
17193;SDS011;8713;48.388;10.928;2022-09-03T07:39:47;2.80;;;1.80;;
17193;SDS011;8713;48.388;10.928;2022-09-03T07:41:00;2.15;;;1.70;;
17193;SDS011;8713;48.388;10.928;2022-09-03T07:42:12;2.97;;;1.92;;
17193;SDS011;8713;48.388;10.928;2022-09-03T07:43:21;2.42;;;1.63;;
17193;SDS011;8713;48.388;10.928;2022-09-03T07:44:31;2.30;;;1.92;;
17193;SDS011;8713;48.388;10.928;2022-09-03T07:45:40;3.00;;;2.00;;
17193;SDS011;8713;48.388;10.928;2022-09-03T07:46:54;5.80;;;1.98;;
17193;SDS011;8713;48.388;10.928;2022-09-03T07:48:03;2.45;;;2.00;;
17193;SDS011;8713;48.388;10.928;2022-09-03T07:49:12;3.15;;;2.05;;
17193;SDS011;8713;48.388;10.928;2022-09-03T07:50:22;1.90;;;1.70;;
17193;SDS011;8713;48.388;10.928;2022-09-03T07:51:33;2.40;;;1.98;;
17193;SDS011;8713;48.388;10.928;2022-09-03T07:52:44;3.03;;;2.03;;
17193;SDS011;8713;48.388;10.928;2022-09-03T07:53:54;3.58;;;2.05;;
17193;SDS011;8713;48.388;10.928;2022-09-03T07:55:10;3.13;;;1.90;;
17193;SDS011;8713;48.388;10.928;2022-09-03T07:56:19;3.58;;;2.08;;
17193;SDS011;8713;48.388;10.928;2022-09-03T07:57:29;3.15;;;2.10;;
17193;SDS011;8713;48.388;10.928;2022-09-03T07:58:39;4.03;;;2.15;;
17193;SDS011;8713;48.388;10.928;2022-09-03T07:59:51;3.53;;;2.25;;
17193;SDS011;8713;48.388;10.928;2022-09-03T08:01:05;3.03;;;1.90;;
17193;SDS011;8713;48.388;10.928;2022-09-03T08:02:17;2.90;;;1.92;;
17193;SDS011;8713;48.388;10.928;2022-09-03T08:03:26;2.85;;;1.92;;
17193;SDS011;8713;48.388;10.928;2022-09-03T08:04:36;3.95;;;2.00;;
17193;SDS011;8713;48.388;10.928;2022-09-03T08:05:46;2.90;;;2.22;;
17193;SDS011;8713;48.388;10.928;2022-09-03T08:06:55;3.90;;;2.40;;
17193;SDS011;8713;48.388;10.928;2022-09-03T08:08:06;4.00;;;2.40;;
17193;SDS011;8713;48.388;10.928;2022-09-03T08:09:16;3.22;;;2.47;;
17193;SDS011;8713;48.388;10.928;2022-09-03T08:10:26;3.15;;;2.22;;
17193;SDS011;8713;48.388;10.928;2022-09-03T08:11:39;4.70;;;2.40;;
17193;SDS011;8713;48.388;10.928;2022-09-03T08:12:51;3.25;;;2.28;;
17193;SDS011;8713;48.388;10.928;2022-09-03T08:14:01;4.38;;;1.85;;
17193;SDS011;8713;48.388;10.928;2022-09-03T08:15:13;2.30;;;1.80;;
17193;SDS011;8713;48.388;10.928;2022-09-03T08:16:23;2.90;;;2.13;;
17193;SDS011;8713;48.388;10.928;2022-09-03T08:17:32;4.50;;;2.00;;
17193;SDS011;8713;48.388;10.928;2022-09-03T08:18:42;2.75;;;2.10;;
17193;SDS011;8713;48.388;10.928;2022-09-03T08:19:52;3.60;;;2.28;;
17193;SDS011;8713;48.388;10.928;2022-09-03T08:21:14;4.03;;;2.50;;
17193;SDS011;8713;48.388;10.928;2022-09-03T08:22:27;3.55;;;2.00;;
17193;SDS011;8713;48.388;10.928;2022-09-03T08:23:38;4.18;;;2.38;;
17193;SDS011;8713;48.388;10.928;2022-09-03T08:24:48;7.60;;;2.55;;
17193;SDS011;8713;48.388;10.928;2022-09-03T08:25:58;3.30;;;2.10;;
17193;SDS011;8713;48.388;10.928;2022-09-03T08:27:09;3.25;;;2.35;;
17193;SDS011;8713;48.388;10.928;2022-09-03T08:28:18;4.03;;;1.98;;
17193;SDS011;8713;48.388;10.928;2022-09-03T08:29:28;3.15;;;2.17;;
17193;SDS011;8713;48.388;10.928;2022-09-03T08:30:37;4.50;;;2.17;;
17193;SDS011;8713;48.388;10.928;2022-09-03T08:31:47;3.83;;;2.28;;
17193;SDS011;8713;48.388;10.928;2022-09-03T08:32:56;2.00;;;1.75;;
17193;SDS011;8713;48.388;10.928;2022-09-03T08:34:12;3.13;;;1.80;;
17193;SDS011;8713;48.388;10.928;2022-09-03T08:35:22;3.28;;;1.95;;
17193;SDS011;8713;48.388;10.928;2022-09-03T08:36:35;3.38;;;1.60;;
17193;SDS011;8713;48.388;10.928;2022-09-03T08:37:47;3.05;;;1.83;;
17193;SDS011;8713;48.388;10.928;2022-09-03T08:39:02;4.10;;;1.70;;
17193;SDS011;8713;48.388;10.928;2022-09-03T08:40:17;3.05;;;1.70;;
17193;SDS011;8713;48.388;10.928;2022-09-03T08:43:28;3.45;;;2.00;;
17193;SDS011;8713;48.388;10.928;2022-09-03T08:44:54;2.58;;;1.90;;
17193;SDS011;8713;48.388;10.928;2022-09-03T08:46:08;3.05;;;1.98;;
17193;SDS011;8713;48.388;10.928;2022-09-03T08:48:39;2.72;;;1.88;;
17193;SDS011;8713;48.388;10.928;2022-09-03T08:49:56;2.50;;;1.75;;
17193;SDS011;8713;48.388;10.928;2022-09-03T08:51:26;2.80;;;2.10;;
17193;SDS011;8713;48.388;10.928;2022-09-03T08:52:37;2.15;;;1.88;;
17193;SDS011;8713;48.388;10.928;2022-09-03T08:53:56;2.92;;;1.90;;
17193;SDS011;8713;48.388;10.928;2022-09-03T08:56:36;4.47;;;2.13;;
17193;SDS011;8713;48.388;10.928;2022-09-03T08:57:49;2.67;;;1.88;;
17193;SDS011;8713;48.388;10.928;2022-09-03T08:59:12;2.55;;;2.10;;
17193;SDS011;8713;48.388;10.928;2022-09-03T09:00:22;2.92;;;1.92;;
17193;SDS011;8713;48.388;10.928;2022-09-03T09:07:52;1.92;;;1.52;;
17193;SDS011;8713;48.388;10.928;2022-09-03T09:11:19;2.80;;;1.92;;
17193;SDS011;8713;48.388;10.928;2022-09-03T09:13:03;2.38;;;2.00;;
17193;SDS011;8713;48.388;10.928;2022-09-03T09:17:58;5.28;;;2.03;;
17193;SDS011;8713;48.388;10.928;2022-09-03T09:22:29;2.92;;;1.92;;
17193;SDS011;8713;48.388;10.928;2022-09-03T09:23:49;3.55;;;2.15;;
17193;SDS011;8713;48.388;10.928;2022-09-03T09:25:00;2.47;;;1.67;;
17193;SDS011;8713;48.388;10.928;2022-09-03T09:26:22;5.40;;;2.40;;
17193;SDS011;8713;48.388;10.928;2022-09-03T09:27:32;2.35;;;1.60;;
17193;SDS011;8713;48.388;10.928;2022-09-03T09:28:42;2.80;;;1.88;;
17193;SDS011;8713;48.388;10.928;2022-09-03T09:29:54;2.85;;;1.88;;
17193;SDS011;8713;48.388;10.928;2022-09-03T09:31:10;2.65;;;1.85;;
17193;SDS011;8713;48.388;10.928;2022-09-03T09:32:27;3.05;;;1.73;;
17193;SDS011;8713;48.388;10.928;2022-09-03T09:33:36;2.30;;;1.55;;
17193;SDS011;8713;48.388;10.928;2022-09-03T09:34:46;4.15;;;1.90;;
17193;SDS011;8713;48.388;10.928;2022-09-03T09:35:55;3.65;;;1.38;;
17193;SDS011;8713;48.388;10.928;2022-09-03T09:37:11;3.28;;;1.95;;
17193;SDS011;8713;48.388;10.928;2022-09-03T09:38:30;3.30;;;1.60;;
17193;SDS011;8713;48.388;10.928;2022-09-03T09:39:57;2.42;;;1.67;;
17193;SDS011;8713;48.388;10.928;2022-09-03T09:41:15;3.13;;;1.90;;
17193;SDS011;8713;48.388;10.928;2022-09-03T09:42:27;2.47;;;1.40;;
17193;SDS011;8713;48.388;10.928;2022-09-03T09:43:38;3.03;;;1.40;;
17193;SDS011;8713;48.388;10.928;2022-09-03T09:44:48;1.92;;;1.30;;
17193;SDS011;8713;48.388;10.928;2022-09-03T09:46:04;3.75;;;1.58;;
17193;SDS011;8713;48.388;10.928;2022-09-03T09:47:27;1.80;;;1.33;;
17193;SDS011;8713;48.388;10.928;2022-09-03T09:48:52;1.50;;;1.30;;
17193;SDS011;8713;48.388;10.928;2022-09-03T09:50:14;2.33;;;1.30;;
17193;SDS011;8713;48.388;10.928;2022-09-03T09:51:29;1.63;;;1.30;;
17193;SDS011;8713;48.388;10.928;2022-09-03T09:52:39;1.33;;;1.15;;
17193;SDS011;8713;48.388;10.928;2022-09-03T09:55:27;2.10;;;1.30;;
17193;SDS011;8713;48.388;10.928;2022-09-03T09:56:37;1.40;;;1.30;;
17193;SDS011;8713;48.388;10.928;2022-09-03T09:57:46;3.47;;;1.27;;
17193;SDS011;8713;48.388;10.928;2022-09-03T10:00:14;1.75;;;1.30;;
17193;SDS011;8713;48.388;10.928;2022-09-03T10:01:25;1.45;;;1.13;;
17193;SDS011;8713;48.388;10.928;2022-09-03T10:02:38;2.22;;;1.45;;
17193;SDS011;8713;48.388;10.928;2022-09-03T10:03:56;1.60;;;1.10;;
17193;SDS011;8713;48.388;10.928;2022-09-03T10:05:22;2.97;;;1.20;;
17193;SDS011;8713;48.388;10.928;2022-09-03T10:06:38;2.05;;;1.33;;
17193;SDS011;8713;48.388;10.928;2022-09-03T10:08:20;3.17;;;1.30;;
17193;SDS011;8713;48.388;10.928;2022-09-03T10:09:30;2.38;;;1.30;;
17193;SDS011;8713;48.388;10.928;2022-09-03T10:10:42;3.53;;;1.40;;
17193;SDS011;8713;48.388;10.928;2022-09-03T10:12:19;1.90;;;1.33;;
17193;SDS011;8713;48.388;10.928;2022-09-03T10:13:57;1.63;;;1.20;;
17193;SDS011;8713;48.388;10.928;2022-09-03T10:19:15;1.90;;;1.40;;
17193;SDS011;8713;48.388;10.928;2022-09-03T10:20:40;2.40;;;1.17;;
17193;SDS011;8713;48.388;10.928;2022-09-03T10:22:15;1.60;;;1.20;;
17193;SDS011;8713;48.388;10.928;2022-09-03T10:23:28;1.30;;;1.20;;
17193;SDS011;8713;48.388;10.928;2022-09-03T10:24:57;1.23;;;1.00;;
17193;SDS011;8713;48.388;10.928;2022-09-03T10:26:10;1.95;;;1.13;;
17193;SDS011;8713;48.388;10.928;2022-09-03T10:27:22;2.17;;;1.17;;
17193;SDS011;8713;48.388;10.928;2022-09-03T10:28:36;2.47;;;1.10;;
17193;SDS011;8713;48.388;10.928;2022-09-03T10:29:49;1.10;;;1.00;;
17193;SDS011;8713;48.388;10.928;2022-09-03T10:33:04;1.10;;;1.00;;
17193;SDS011;8713;48.388;10.928;2022-09-03T10:34:28;1.60;;;1.25;;
17193;SDS011;8713;48.388;10.928;2022-09-03T10:35:49;2.35;;;1.10;;
17193;SDS011;8713;48.388;10.928;2022-09-03T10:38:37;1.58;;;1.05;;
17193;SDS011;8713;48.388;10.928;2022-09-03T10:39:55;1.60;;;1.10;;
17193;SDS011;8713;48.388;10.928;2022-09-03T10:41:36;1.48;;;1.00;;
17193;SDS011;8713;48.388;10.928;2022-09-03T10:42:56;1.48;;;1.10;;
17193;SDS011;8713;48.388;10.928;2022-09-03T10:45:38;1.40;;;1.10;;
17193;SDS011;8713;48.388;10.928;2022-09-03T10:47:30;1.40;;;0.90;;
17193;SDS011;8713;48.388;10.928;2022-09-03T10:50:17;2.10;;;1.20;;
17193;SDS011;8713;48.388;10.928;2022-09-03T10:52:54;3.97;;;0.93;;
17193;SDS011;8713;48.388;10.928;2022-09-03T10:54:12;1.70;;;0.90;;
17193;SDS011;8713;48.388;10.928;2022-09-03T10:55:40;1.58;;;1.02;;
17193;SDS011;8713;48.388;10.928;2022-09-03T11:00:13;1.20;;;0.90;;
17193;SDS011;8713;48.388;10.928;2022-09-03T11:01:33;1.70;;;1.00;;
17193;SDS011;8713;48.388;10.928;2022-09-03T11:03:09;1.48;;;0.80;;
17193;SDS011;8713;48.388;10.928;2022-09-03T11:06:12;1.33;;;1.00;;
17193;SDS011;8713;48.388;10.928;2022-09-03T11:07:34;1.50;;;1.08;;
17193;SDS011;8713;48.388;10.928;2022-09-03T11:10:27;2.15;;;1.30;;
17193;SDS011;8713;48.388;10.928;2022-09-03T11:12:00;1.30;;;1.00;;
17193;SDS011;8713;48.388;10.928;2022-09-03T11:13:29;1.75;;;0.90;;
17193;SDS011;8713;48.388;10.928;2022-09-03T11:14:44;1.35;;;0.90;;
17193;SDS011;8713;48.388;10.928;2022-09-03T11:15:59;1.40;;;1.00;;
17193;SDS011;8713;48.388;10.928;2022-09-03T11:17:19;1.25;;;1.00;;
17193;SDS011;8713;48.388;10.928;2022-09-03T11:20:05;1.02;;;0.93;;
17193;SDS011;8713;48.388;10.928;2022-09-03T11:21:28;1.10;;;1.00;;
17193;SDS011;8713;48.388;10.928;2022-09-03T11:22:39;1.52;;;1.08;;
17193;SDS011;8713;48.388;10.928;2022-09-03T11:23:53;2.60;;;0.90;;
17193;SDS011;8713;48.388;10.928;2022-09-03T11:25:10;1.42;;;1.10;;
17193;SDS011;8713;48.388;10.928;2022-09-03T11:26:22;1.90;;;1.00;;
17193;SDS011;8713;48.388;10.928;2022-09-03T11:28:55;1.38;;;0.90;;
17193;SDS011;8713;48.388;10.928;2022-09-03T11:30:12;2.25;;;1.20;;
17193;SDS011;8713;48.388;10.928;2022-09-03T11:31:50;1.10;;;1.00;;
17193;SDS011;8713;48.388;10.928;2022-09-03T11:33:06;2.33;;;1.20;;
17193;SDS011;8713;48.388;10.928;2022-09-03T11:36:39;2.05;;;1.30;;
17193;SDS011;8713;48.388;10.928;2022-09-03T11:38:18;1.73;;;1.20;;
17193;SDS011;8713;48.388;10.928;2022-09-03T11:40:59;1.63;;;1.08;;
17193;SDS011;8713;48.388;10.928;2022-09-03T11:43:48;1.40;;;0.88;;
17193;SDS011;8713;48.388;10.928;2022-09-03T11:44:59;1.25;;;0.88;;
17193;SDS011;8713;48.388;10.928;2022-09-03T11:46:28;0.90;;;0.85;;
17193;SDS011;8713;48.388;10.928;2022-09-03T11:47:39;0.95;;;0.80;;
17193;SDS011;8713;48.388;10.928;2022-09-03T11:48:51;2.17;;;0.82;;
17193;SDS011;8713;48.388;10.928;2022-09-03T11:50:07;0.75;;;0.75;;
17193;SDS011;8713;48.388;10.928;2022-09-03T11:51:42;1.45;;;0.90;;
17193;SDS011;8713;48.388;10.928;2022-09-03T11:54:44;1.30;;;0.88;;
17193;SDS011;8713;48.388;10.928;2022-09-03T11:55:55;0.80;;;0.80;;
17193;SDS011;8713;48.388;10.928;2022-09-03T11:57:14;1.15;;;0.90;;
17193;SDS011;8713;48.388;10.928;2022-09-03T11:58:32;1.50;;;0.90;;
17193;SDS011;8713;48.388;10.928;2022-09-03T11:59:50;1.35;;;1.00;;
17193;SDS011;8713;48.388;10.928;2022-09-03T12:01:03;1.30;;;0.90;;
17193;SDS011;8713;48.388;10.928;2022-09-03T12:11:16;1.10;;;0.85;;
17193;SDS011;8713;48.388;10.928;2022-09-03T12:21:01;1.00;;;0.90;;
17193;SDS011;8713;48.388;10.928;2022-09-03T12:22:13;1.92;;;0.90;;
17193;SDS011;8713;48.388;10.928;2022-09-03T12:23:44;1.45;;;1.10;;
17193;SDS011;8713;48.388;10.928;2022-09-03T12:25:06;1.20;;;1.10;;
17193;SDS011;8713;48.388;10.928;2022-09-03T12:26:22;0.98;;;0.88;;
17193;SDS011;8713;48.388;10.928;2022-09-03T12:27:35;1.23;;;0.95;;
17193;SDS011;8713;48.388;10.928;2022-09-03T12:28:45;1.75;;;1.00;;
17193;SDS011;8713;48.388;10.928;2022-09-03T12:30:00;1.65;;;0.88;;
17193;SDS011;8713;48.388;10.928;2022-09-03T12:31:17;1.30;;;1.00;;
17193;SDS011;8713;48.388;10.928;2022-09-03T12:32:37;1.05;;;0.90;;
17193;SDS011;8713;48.388;10.928;2022-09-03T12:33:48;1.00;;;0.90;;
17193;SDS011;8713;48.388;10.928;2022-09-03T12:35:14;1.02;;;0.90;;
17193;SDS011;8713;48.388;10.928;2022-09-03T12:36:36;1.30;;;0.80;;
17193;SDS011;8713;48.388;10.928;2022-09-03T12:37:50;1.00;;;0.90;;
17193;SDS011;8713;48.388;10.928;2022-09-03T12:39:07;1.10;;;1.00;;
17193;SDS011;8713;48.388;10.928;2022-09-03T12:40:32;1.23;;;0.70;;
17193;SDS011;8713;48.388;10.928;2022-09-03T12:41:58;1.10;;;0.98;;
17193;SDS011;8713;48.388;10.928;2022-09-03T12:43:13;1.27;;;0.95;;
17193;SDS011;8713;48.388;10.928;2022-09-03T12:44:29;0.80;;;0.70;;
17193;SDS011;8713;48.388;10.928;2022-09-03T12:45:50;0.88;;;0.70;;
17193;SDS011;8713;48.388;10.928;2022-09-03T12:47:06;1.27;;;0.90;;
17193;SDS011;8713;48.388;10.928;2022-09-03T12:48:29;1.33;;;0.80;;
17193;SDS011;8713;48.388;10.928;2022-09-03T12:49:40;0.70;;;0.70;;
17193;SDS011;8713;48.388;10.928;2022-09-03T12:51:01;1.15;;;0.98;;
17193;SDS011;8713;48.388;10.928;2022-09-03T12:52:29;2.80;;;0.85;;
17193;SDS011;8713;48.388;10.928;2022-09-03T12:53:44;1.73;;;0.80;;
17193;SDS011;8713;48.388;10.928;2022-09-03T12:55:16;1.45;;;0.85;;
17193;SDS011;8713;48.388;10.928;2022-09-03T12:56:43;0.90;;;0.85;;
17193;SDS011;8713;48.388;10.928;2022-09-03T12:59:40;2.03;;;0.75;;
17193;SDS011;8713;48.388;10.928;2022-09-03T13:00:59;1.00;;;0.90;;
17193;SDS011;8713;48.388;10.928;2022-09-03T13:02:25;0.82;;;0.80;;
17193;SDS011;8713;48.388;10.928;2022-09-03T13:05:18;1.20;;;0.90;;
17193;SDS011;8713;48.388;10.928;2022-09-03T13:06:32;2.40;;;0.80;;
17193;SDS011;8713;48.388;10.928;2022-09-03T13:07:55;1.40;;;0.80;;
17193;SDS011;8713;48.388;10.928;2022-09-03T13:09:08;0.80;;;0.70;;
17193;SDS011;8713;48.388;10.928;2022-09-03T13:10:25;1.25;;;0.80;;
17193;SDS011;8713;48.388;10.928;2022-09-03T13:11:37;1.33;;;0.90;;
17193;SDS011;8713;48.388;10.928;2022-09-03T13:12:47;0.88;;;0.88;;
17193;SDS011;8713;48.388;10.928;2022-09-03T13:14:03;1.55;;;0.90;;
17193;SDS011;8713;48.388;10.928;2022-09-03T13:15:18;1.35;;;0.80;;
17193;SDS011;8713;48.388;10.928;2022-09-03T13:17:57;0.90;;;0.80;;
17193;SDS011;8713;48.388;10.928;2022-09-03T13:24:49;0.95;;;0.77;;
17193;SDS011;8713;48.388;10.928;2022-09-03T13:28:02;1.23;;;0.80;;
17193;SDS011;8713;48.388;10.928;2022-09-03T13:29:23;1.45;;;0.80;;
17193;SDS011;8713;48.388;10.928;2022-09-03T13:30:54;1.30;;;0.80;;
17193;SDS011;8713;48.388;10.928;2022-09-03T13:34:04;1.15;;;0.60;;
17193;SDS011;8713;48.388;10.928;2022-09-03T13:35:25;1.25;;;0.55;;
17193;SDS011;8713;48.388;10.928;2022-09-03T13:38:41;1.42;;;0.80;;
17193;SDS011;8713;48.388;10.928;2022-09-03T13:40:15;1.00;;;0.65;;
17193;SDS011;8713;48.388;10.928;2022-09-03T13:42:15;1.27;;;0.70;;
17193;SDS011;8713;48.388;10.928;2022-09-03T13:43:44;0.50;;;0.50;;
17193;SDS011;8713;48.388;10.928;2022-09-03T13:46:42;0.88;;;0.60;;
17193;SDS011;8713;48.388;10.928;2022-09-03T13:48:03;0.68;;;0.57;;
17193;SDS011;8713;48.388;10.928;2022-09-03T13:50:18;2.33;;;0.77;;
17193;SDS011;8713;48.388;10.928;2022-09-03T13:51:51;1.05;;;0.70;;
17193;SDS011;8713;48.388;10.928;2022-09-03T13:53:08;0.70;;;0.60;;
17193;SDS011;8713;48.388;10.928;2022-09-03T13:54:41;1.35;;;0.60;;
17193;SDS011;8713;48.388;10.928;2022-09-03T13:55:55;1.02;;;0.52;;
17193;SDS011;8713;48.388;10.928;2022-09-03T13:57:22;0.90;;;0.63;;
17193;SDS011;8713;48.388;10.928;2022-09-03T13:58:46;0.60;;;0.60;;
17193;SDS011;8713;48.388;10.928;2022-09-03T14:00:06;1.15;;;0.90;;
17193;SDS011;8713;48.388;10.928;2022-09-03T14:03:32;2.35;;;0.70;;
17193;SDS011;8713;48.388;10.928;2022-09-03T14:16:07;2.08;;;0.70;;
17193;SDS011;8713;48.388;10.928;2022-09-03T14:17:39;1.30;;;0.80;;
17193;SDS011;8713;48.388;10.928;2022-09-03T14:19:02;1.95;;;0.82;;
17193;SDS011;8713;48.388;10.928;2022-09-03T14:20:31;0.93;;;0.80;;
17193;SDS011;8713;48.388;10.928;2022-09-03T14:22:00;0.93;;;0.90;;
17193;SDS011;8713;48.388;10.928;2022-09-03T14:25:02;1.20;;;0.70;;
17193;SDS011;8713;48.388;10.928;2022-09-03T14:26:31;2.90;;;0.80;;
17193;SDS011;8713;48.388;10.928;2022-09-03T14:27:43;1.25;;;0.80;;
17193;SDS011;8713;48.388;10.928;2022-09-03T14:29:00;1.95;;;0.70;;
17193;SDS011;8713;48.388;10.928;2022-09-03T14:30:19;1.92;;;0.93;;
17193;SDS011;8713;48.388;10.928;2022-09-03T14:33:35;1.20;;;0.88;;
17193;SDS011;8713;48.388;10.928;2022-09-03T14:36:28;1.88;;;0.80;;
17193;SDS011;8713;48.388;10.928;2022-09-03T14:38:14;0.90;;;0.80;;
17193;SDS011;8713;48.388;10.928;2022-09-03T14:39:43;0.95;;;0.73;;
17193;SDS011;8713;48.388;10.928;2022-09-03T14:42:22;1.65;;;0.90;;
17193;SDS011;8713;48.388;10.928;2022-09-03T14:47:19;2.22;;;1.00;;
17193;SDS011;8713;48.388;10.928;2022-09-03T14:49:57;0.70;;;0.70;;
17193;SDS011;8713;48.388;10.928;2022-09-03T14:52:51;0.77;;;0.73;;
17193;SDS011;8713;48.388;10.928;2022-09-03T14:58:00;1.75;;;1.05;;
17193;SDS011;8713;48.388;10.928;2022-09-03T15:04:06;1.00;;;0.90;;
17193;SDS011;8713;48.388;10.928;2022-09-03T15:06:56;1.15;;;0.50;;
17193;SDS011;8713;48.388;10.928;2022-09-03T15:10:06;2.45;;;0.73;;
17193;SDS011;8713;48.388;10.928;2022-09-03T15:11:47;1.65;;;1.00;;
17193;SDS011;8713;48.388;10.928;2022-09-03T15:13:10;1.20;;;0.88;;
17193;SDS011;8713;48.388;10.928;2022-09-03T15:14:49;1.00;;;0.80;;
17193;SDS011;8713;48.388;10.928;2022-09-03T15:21:56;1.00;;;0.80;;
17193;SDS011;8713;48.388;10.928;2022-09-03T15:25:15;1.10;;;0.90;;
17193;SDS011;8713;48.388;10.928;2022-09-03T15:28:00;2.58;;;0.98;;
17193;SDS011;8713;48.388;10.928;2022-09-03T15:29:48;2.78;;;0.85;;
17193;SDS011;8713;48.388;10.928;2022-09-03T15:31:21;4.28;;;1.00;;
17193;SDS011;8713;48.388;10.928;2022-09-03T15:36:14;1.27;;;1.00;;
17193;SDS011;8713;48.388;10.928;2022-09-03T15:37:47;1.10;;;0.90;;
17193;SDS011;8713;48.388;10.928;2022-09-03T15:39:15;1.67;;;0.90;;
17193;SDS011;8713;48.388;10.928;2022-09-03T15:40:45;2.53;;;1.15;;
17193;SDS011;8713;48.388;10.928;2022-09-03T15:42:23;1.00;;;0.90;;
17193;SDS011;8713;48.388;10.928;2022-09-03T15:43:35;2.33;;;1.05;;
17193;SDS011;8713;48.388;10.928;2022-09-03T15:44:46;2.13;;;1.10;;
17193;SDS011;8713;48.388;10.928;2022-09-03T15:46:03;2.88;;;1.10;;
17193;SDS011;8713;48.388;10.928;2022-09-03T15:48:59;0.95;;;0.85;;
17193;SDS011;8713;48.388;10.928;2022-09-03T15:51:34;1.20;;;0.90;;
17193;SDS011;8713;48.388;10.928;2022-09-03T15:54:44;2.72;;;1.00;;
17193;SDS011;8713;48.388;10.928;2022-09-03T15:59:20;1.60;;;1.00;;
17193;SDS011;8713;48.388;10.928;2022-09-03T16:04:26;1.40;;;1.08;;
17193;SDS011;8713;48.388;10.928;2022-09-03T16:06:04;1.70;;;0.90;;
17193;SDS011;8713;48.388;10.928;2022-09-03T16:09:04;1.85;;;0.93;;
17193;SDS011;8713;48.388;10.928;2022-09-03T16:15:47;1.55;;;0.90;;